Time;durP1;ratioP1;P1;durP2;ratioP2;P2;SDS_P1;SDS_P2;PMS_P1;PMS_P2;Temp;Humidity;BMP_temperature;BMP_pressure;BME280_temperature;BME280_humidity;BME280_pressure;Samples;Min_cycle;Max_cycle;Signal;HPM_P1;HPM_P2
2022/08/15 18:36:15;;;;;;;;;;;;;;;;;;6114673;23;19963;-68
2022/08/15 18:41:05;;;;;;;;;;;;;;;;;;6121677;23;19928;-70
2022/08/15 18:41:26;;;;;;;;;;;;;;;;;;6122456;23;19928;-70
2022/08/15 18:43:52;;;;;;;;;;;;;;;;;;6097167;23;19915;-68
2022/08/15 18:46:18;;;;;;;;;;;;;;;;;;6122685;23;19943;-70
2022/08/15 18:48:44;;;;;;;;;;;;;;;;;;6122769;23;20253;-70
2022/08/15 18:51:09;;;;;;;;;;;;;;;;;;6096537;23;19979;-69
2022/08/15 18:53:35;;;;;;;;;;;;;;;;;;6121499;23;19908;-69
2022/08/15 18:56:01;;;;;;;;;;;;;;;;;;6122629;23;19909;-69
2022/08/15 18:58:27;;;;;;;;;;;;;;;;;;6123227;23;19917;-70
2022/08/15 19:00:52;;;;;;;;;;;;;;;;;;6123479;23;19916;-70
2022/08/15 19:03:19;;;;;;;;;;;;;;;;;;6096878;23;19913;-71
2022/08/15 19:05:48;;;;;;;;;;;;;;;;;;6123258;23;20364;-70
2022/08/15 19:08:13;;;;;;;;;;;;;;;;;;6122886;23;20301;-71
2022/08/15 19:10:39;;;;;;;;;;;;;;;;;;6122530;23;19915;-70
2022/08/15 19:13:04;;;;;;;;;;;;;;;;;;6122932;23;19909;-70
2022/08/15 19:15:32;;;;;;;;;;;;;;;;;;6122776;23;19992;-69
2022/08/15 19:17:59;;;;;;;;;;;;;;;;;;6123842;23;19921;-71
2022/08/15 19:20:25;;;;;;;;;;;;;;;;;;6097685;23;20364;-71
2022/08/15 19:22:51;;;;;;;;;;;;;;;;;;6123938;23;20404;-70
2022/08/15 19:25:17;;;;;;;;;;;;;;;;;;6123081;23;19936;-70
2022/08/15 19:27:42;;;;;;;;;;;;;;;;;;6123923;23;19916;-69
2022/08/15 19:30:08;;;;;;;;;;;;;;;;;;6097407;23;19913;-70
2022/08/15 19:32:34;;;;;;;;;;;;;;;;;;6123742;23;19913;-69
2022/08/15 19:35:00;;;;;;;;;;;;;;;;;;6143133;23;19916;-68
2022/08/15 19:37:26;;;;;;;;;;;;;;;;;;6152966;23;19923;-70
2022/08/15 19:39:52;;;;;;;;;;;;;;;;;;6151913;23;19987;-69
2022/08/15 19:42:17;;;;;;;;;;;;;;;;;;6176150;23;19995;-69
2022/08/15 19:44:43;;;;;;;;;;;;;;;;;;6153131;23;19915;-69
2022/08/15 19:47:09;;;;;;;;;;;;;;;;;;6152939;23;19944;-69
2022/08/15 19:52:19;;;;;;;;;;;;;;;;;;6152995;23;19912;-70
2022/08/15 19:54:44;;;;;;;;;;;;;;;;;;6151707;23;19931;-70
2022/08/15 19:57:10;;;;;;;;;;;;;;;;;;6152530;23;19920;-70
2022/08/15 19:59:35;;;;;;;;;;;;;;;;;;6152991;23;19908;-70
2022/08/15 20:02:01;;;;;;;;;;;;;;;;;;6153029;23;19908;-70
2022/08/15 20:04:27;;;;;;;;;;;;;;;;;;6152651;23;19967;-69
2022/08/15 20:06:52;;;;;;;;;;;;;;;;;;6152916;23;19908;-70
2022/08/15 20:09:18;;;;;;;;;;;;;;;;;;6151025;23;20108;-71
2022/08/15 20:11:43;;;;;;;;;;;;;;;;;;6152818;23;19909;-70
2022/08/15 20:14:10;;;;;;;;;;;;;;;;;;6152754;23;19908;-70
2022/08/15 20:16:35;;;;;;;;;;;;;;;;;;6152411;23;19908;-71
2022/08/15 20:19:01;;;;;;;;;;;;;;;;;;6153030;23;19915;-71
2022/08/15 20:21:27;;;;;;;;;;;;;;;;;;6152227;23;19963;-70
2022/08/15 20:23:52;;;;;;;;;;;;;;;;;;6152853;23;20319;-70
2022/08/15 20:26:18;;;;;;;;;;;;;;;;;;6151550;23;19931;-71
2022/08/15 20:28:44;;;;;;;;;;;;;;;;;;6152545;23;20256;-69
2022/08/15 20:31:10;;;;;;;;;;;;;;;;;;6152296;23;19912;-70
2022/08/15 20:33:36;;;;;;;;;;;;;;;;;;6152450;23;19914;-71
2022/08/15 20:36:01;;;;;;;;;;;;;;;;;;6152374;23;19916;-70
2022/08/15 20:38:27;;;;;;;;;;;;;;;;;;6150817;23;20388;-70
2022/08/15 20:40:53;;;;;;;;;;;;;;;;;;6152571;23;19915;-70
2022/08/15 20:43:19;;;;;;;;;;;;;;;;;;6152365;23;19913;-71
2022/08/15 20:45:44;;;;;;;;;;;;;;;;;;6150698;23;19916;-69
2022/08/15 20:48:10;;;;;;;;;;;;;;;;;;6152719;23;19909;-71
2022/08/15 20:50:36;;;;;;;;;;;;;;;;;;6152306;23;19931;-69
2022/08/15 20:53:01;;;;;;;;;;;;;;;;;;6152886;23;19946;-69
2022/08/15 20:55:28;;;;;;;;;;;;;;;;;;6152543;23;19919;-69
2022/08/15 20:57:54;;;;;;;;;;;;;;;;;;6153427;23;19916;-70
2022/08/15 21:00:21;;;;;;;;;;;;;;;;;;6152610;23;19987;-70
2022/08/15 21:02:47;;;;;;;;;;;;;;;;;;6175790;23;19908;-70
2022/08/15 21:05:13;;;;;;;;;;;;;;;;;;6152053;23;19931;-69
2022/08/15 21:07:38;;;;;;;;;;;;;;;;;;6152335;23;19912;-69
2022/08/15 21:10:04;;;;;;;;;;;;;;;;;;6152259;23;19908;-70
2022/08/15 21:12:30;;;;;;;;;;;;;;;;;;6150218;23;19908;-70
2022/08/15 21:14:55;;;;;;;;;;;;;;;;;;6152197;23;20341;-69
2022/08/15 21:17:21;;;;;;;;;;;;;;;;;;6150101;23;19940;-69
2022/08/15 21:19:48;;;;;;;;;;;;;;;;;;6152174;23;19984;-69
2022/08/15 21:22:13;;;;;;;;;;;;;;;;;;6151956;23;19908;-71
2022/08/15 21:24:39;;;;;;;;;;;;;;;;;;6151456;23;19919;-67
2022/08/15 21:27:05;;;;;;;;;;;;;;;;;;6151972;23;20269;-68
2022/08/15 21:29:30;;;;;;;;;;;;;;;;;;6152565;23;19909;-69
2022/08/15 21:31:56;;;;;;;;;;;;;;;;;;6175646;23;19909;-68
2022/08/15 21:34:21;;;;;;;;;;;;;;;;;;6151835;23;19919;-68
2022/08/15 21:36:47;;;;;;;;;;;;;;;;;;6152249;23;19912;-69
2022/08/15 21:39:13;;;;;;;;;;;;;;;;;;6152069;23;20003;-69
2022/08/15 21:41:39;;;;;;;;;;;;;;;;;;6151803;23;19919;-68
2022/08/15 21:44:05;;;;;;;;;;;;;;;;;;6152430;23;19915;-69
2022/08/15 21:46:30;;;;;;;;;;;;;;;;;;6151735;23;20249;-69
2022/08/15 21:48:56;;;;;;;;;;;;;;;;;;6150605;23;20089;-68
2022/08/15 21:51:22;;;;;;;;;;;;;;;;;;6152097;23;20345;-68
2022/08/15 21:53:47;;;;;;;;;;;;;;;;;;6152176;23;19976;-68
2022/08/15 21:56:13;;;;;;;;;;;;;;;;;;6153396;23;19989;-68
2022/08/15 21:58:39;;;;;;;;;;;;;;;;;;6153682;23;19927;-69
2022/08/15 22:01:04;;;;;;;;;;;;;;;;;;6153787;23;20285;-69
2022/08/15 22:03:30;;;;;;;;;;;;;;;;;;6153841;23;19966;-67
2022/08/15 22:05:55;;;;;;;;;;;;;;;;;;6152252;23;19908;-69
2022/08/15 22:08:21;;;;;;;;;;;;;;;;;;6153897;23;19908;-69
2022/08/15 22:10:46;;;;;;;;;;;;;;;;;;6152371;23;19935;-69
2022/08/15 22:13:12;;;;;;;;;;;;;;;;;;6154153;23;19928;-68
2022/08/15 22:15:38;;;;;;;;;;;;;;;;;;6153691;23;19944;-67
2022/08/15 22:18:06;;;;;;;;;;;;;;;;;;6154115;23;19924;-68
2022/08/15 22:20:32;;;;;;;;;;;;;;;;;;6183127;23;19908;-69
2022/08/15 22:22:57;;;;;;;;;;;;;;;;;;6182168;23;19908;-68
2022/08/15 22:25:23;;;;;;;;;;;;;;;;;;6157160;23;19930;-69
2022/08/15 22:27:49;;;;;;;;;;;;;;;;;;6183588;23;19966;-67
2022/08/15 22:30:14;;;;;;;;;;;;;;;;;;6183504;23;19915;-68
2022/08/15 22:32:40;;;;;;;;;;;;;;;;;;6183235;23;19915;-68
2022/08/15 22:35:06;;;;;;;;;;;;;;;;;;6183133;23;19916;-68
2022/08/15 22:37:32;;;;;;;;;;;;;;;;;;6183250;23;20368;-68
2022/08/15 22:40:00;;;;;;;;;;;;;;;;;;6183361;23;19931;-68
2022/08/15 22:42:27;;;;;;;;;;;;;;;;;;6183288;23;19908;-68
2022/08/15 22:44:53;;;;;;;;;;;;;;;;;;6183396;23;19915;-67
2022/08/15 22:47:18;;;;;;;;;;;;;;;;;;6183185;23;19943;-69
2022/08/15 22:49:44;;;;;;;;;;;;;;;;;;6183863;23;19904;-68
2022/08/15 22:52:09;;;;;;;;;;;;;;;;;;6183265;23;19908;-68
2022/08/15 22:54:35;;;;;;;;;;;;;;;;;;6183368;23;19990;-69
2022/08/15 22:57:01;;;;;;;;;;;;;;;;;;6183118;23;19916;-68
2022/08/15 22:59:27;;;;;;;;;;;;;;;;;;6183103;23;20233;-68
2022/08/15 23:01:53;;;;;;;;;;;;;;;;;;6183157;23;19948;-67
2022/08/15 23:04:19;;;;;;;;;;;;;;;;;;6182679;23;19943;-70
2022/08/15 23:06:45;;;;;;;;;;;;;;;;;;6182451;23;19908;-68
2022/08/15 23:09:10;;;;;;;;;;;;;;;;;;6183271;23;20451;-68
2022/08/15 23:11:36;;;;;;;;;;;;;;;;;;6156342;23;19931;-68
2022/08/15 23:14:02;;;;;;;;;;;;;;;;;;6182617;23;19983;-68
2022/08/15 23:16:28;;;;;;;;;;;;;;;;;;6183097;23;19919;-68
2022/08/15 23:18:53;;;;;;;;;;;;;;;;;;6183050;23;20047;-68
2022/08/15 23:21:19;;;;;;;;;;;;;;;;;;6183234;23;20352;-70
2022/08/15 23:23:45;;;;;;;;;;;;;;;;;;6183840;23;20345;-68
2022/08/15 23:26:10;;;;;;;;;;;;;;;;;;6183151;23;19931;-67
2022/08/15 23:28:36;;;;;;;;;;;;;;;;;;6182882;23;19962;-69
2022/08/15 23:31:02;;;;;;;;;;;;;;;;;;6181651;23;19908;-67
2022/08/15 23:33:27;;;;;;;;;;;;;;;;;;6182987;23;20382;-68
2022/08/15 23:35:53;;;;;;;;;;;;;;;;;;6182589;23;19991;-69
2022/08/15 23:38:19;;;;;;;;;;;;;;;;;;6183008;23;19995;-68
2022/08/15 23:40:44;;;;;;;;;;;;;;;;;;6183400;23;19908;-68
2022/08/15 23:43:10;;;;;;;;;;;;;;;;;;6181522;23;20264;-69
2022/08/15 23:45:36;;;;;;;;;;;;;;;;;;6182535;23;20340;-68
2022/08/15 23:48:01;;;;;;;;;;;;;;;;;;6182954;23;19915;-67
2022/08/15 23:50:27;;;;;;;;;;;;;;;;;;6182861;23;19998;-67
2022/08/15 23:52:52;;;;;;;;;;;;;;;;;;6183008;23;19908;-67
2022/08/15 23:55:18;;;;;;;;;;;;;;;;;;6183670;23;19918;-69
2022/08/15 23:57:44;;;;;;;;;;;;;;;;;;6183381;23;19916;-68
